sensor_id;sensor_type;location;lat;lon;timestamp;pressure;altitude;pressure_sealevel;temperature;humidity
34931;BME280;21134;49.646;8.560;2023-05-19T00:00:45;101081.13;;;11.70;62.09
34931;BME280;21134;49.646;8.560;2023-05-19T00:03:11;101076.00;;;11.70;62.66
34931;BME280;21134;49.646;8.560;2023-05-19T00:05:41;101077.84;;;11.96;59.74
34931;BME280;21134;49.646;8.560;2023-05-19T00:08:09;101074.38;;;11.86;59.92
34931;BME280;21134;49.646;8.560;2023-05-19T00:10:37;101077.00;;;12.06;59.95
34931;BME280;21134;49.646;8.560;2023-05-19T00:13:04;101076.13;;;11.96;59.18
34931;BME280;21134;49.646;8.560;2023-05-19T00:15:31;101072.72;;;11.94;60.29
34931;BME280;21134;49.646;8.560;2023-05-19T00:17:59;101080.44;;;12.03;57.81
34931;BME280;21134;49.646;8.560;2023-05-19T00:20:26;101068.50;;;12.22;57.25
34931;BME280;21134;49.646;8.560;2023-05-19T00:22:52;101075.31;;;12.22;57.19
34931;BME280;21134;49.646;8.560;2023-05-19T00:25:19;101079.59;;;12.24;57.47
34931;BME280;21134;49.646;8.560;2023-05-19T00:27:45;101079.63;;;12.23;57.71
34931;BME280;21134;49.646;8.560;2023-05-19T00:30:12;101071.06;;;12.19;58.26
34931;BME280;21134;49.646;8.560;2023-05-19T00:32:39;101073.63;;;12.16;58.32
34931;BME280;21134;49.646;8.560;2023-05-19T00:35:07;101071.06;;;12.21;58.20
34931;BME280;21134;49.646;8.560;2023-05-19T00:37:34;101071.06;;;12.22;57.74
34931;BME280;21134;49.646;8.560;2023-05-19T00:40:00;101075.31;;;12.17;58.41
34931;BME280;21134;49.646;8.560;2023-05-19T00:42:29;101079.56;;;12.09;58.37
34931;BME280;21134;49.646;8.560;2023-05-19T00:44:56;101071.88;;;12.03;58.59
34931;BME280;21134;49.646;8.560;2023-05-19T00:47:23;101067.63;;;12.13;57.91
34931;BME280;21134;49.646;8.560;2023-05-19T00:49:49;101065.94;;;12.30;57.19
34931;BME280;21134;49.646;8.560;2023-05-19T00:52:17;101069.34;;;12.44;55.86
34931;BME280;21134;49.646;8.560;2023-05-19T00:54:44;101065.94;;;12.39;57.40
34931;BME280;21134;49.646;8.560;2023-05-19T00:57:12;101064.25;;;12.38;56.76
34931;BME280;21134;49.646;8.560;2023-05-19T00:59:39;101056.53;;;12.23;58.00
34931;BME280;21134;49.646;8.560;2023-05-19T01:02:06;101056.53;;;12.30;57.54
34931;BME280;21134;49.646;8.560;2023-05-19T01:04:34;101055.66;;;12.27;56.85
34931;BME280;21134;49.646;8.560;2023-05-19T01:07:01;101056.53;;;12.32;56.65
34931;BME280;21134;49.646;8.560;2023-05-19T01:09:29;101042.84;;;12.24;57.36
34931;BME280;21134;49.646;8.560;2023-05-19T01:11:56;101050.53;;;12.31;57.58
34931;BME280;21134;49.646;8.560;2023-05-19T01:14:22;101045.41;;;12.33;56.91
34931;BME280;21134;49.646;8.560;2023-05-19T01:16:53;101043.69;;;12.27;57.62
34931;BME280;21134;49.646;8.560;2023-05-19T01:19:35;101037.72;;;12.36;56.61
34931;BME280;21134;49.646;8.560;2023-05-19T01:22:26;101040.28;;;12.30;57.28
34931;BME280;21134;49.646;8.560;2023-05-19T01:25:22;101030.00;;;12.27;57.72
34931;BME280;21134;49.646;8.560;2023-05-19T01:28:30;101037.72;;;12.39;57.32
34931;BME280;21134;49.646;8.560;2023-05-19T01:30:59;101028.31;;;12.37;57.19
34931;BME280;21134;49.646;8.560;2023-05-19T01:33:28;101048.84;;;12.46;56.25
34931;BME280;21134;49.646;8.560;2023-05-19T01:35:55;101036.00;;;12.29;57.32
34931;BME280;21134;49.646;8.560;2023-05-19T01:38:23;101038.56;;;12.21;58.25
34931;BME280;21134;49.646;8.560;2023-05-19T01:40:51;101040.28;;;12.38;57.03
34931;BME280;21134;49.646;8.560;2023-05-19T01:43:22;101037.72;;;12.28;56.56
34931;BME280;21134;49.646;8.560;2023-05-19T01:45:50;101040.25;;;12.18;57.27
34931;BME280;21134;49.646;8.560;2023-05-19T01:48:18;101045.41;;;12.13;57.85
34931;BME280;21134;49.646;8.560;2023-05-19T01:50:45;101048.78;;;12.04;58.23
34931;BME280;21134;49.646;8.560;2023-05-19T01:53:12;101042.78;;;11.96;58.10
34931;BME280;21134;49.646;8.560;2023-05-19T01:55:42;101052.97;;;11.82;58.90
34931;BME280;21134;49.646;8.560;2023-05-19T01:58:14;101041.97;;;12.00;58.64
34931;BME280;21134;49.646;8.560;2023-05-19T02:00:50;101049.53;;;11.73;60.51
34931;BME280;21134;49.646;8.560;2023-05-19T02:03:28;101056.25;;;11.40;62.50
34931;BME280;21134;49.646;8.560;2023-05-19T02:06:02;101053.50;;;11.08;63.79
34931;BME280;21134;49.646;8.560;2023-05-19T02:08:41;101058.63;;;11.08;63.35
34931;BME280;21134;49.646;8.560;2023-05-19T02:11:13;101057.66;;;10.90;64.42
34931;BME280;21134;49.646;8.560;2023-05-19T02:13:49;101059.06;;;10.50;66.12
34931;BME280;21134;49.646;8.560;2023-05-19T02:16:18;101059.63;;;10.23;67.20
34931;BME280;21134;49.646;8.560;2023-05-19T02:18:47;101058.72;;;10.15;68.81
34931;BME280;21134;49.646;8.560;2023-05-19T02:21:13;101054.25;;;9.98;69.81
34931;BME280;21134;49.646;8.560;2023-05-19T02:23:40;101059.31;;;9.89;70.67
34931;BME280;21134;49.646;8.560;2023-05-19T02:26:06;101066.84;;;9.78;71.11
34931;BME280;21134;49.646;8.560;2023-05-19T02:28:33;101060.59;;;9.57;73.33
34931;BME280;21134;49.646;8.560;2023-05-19T02:31:00;101063.00;;;9.41;73.83
34931;BME280;21134;49.646;8.560;2023-05-19T02:33:27;101065.38;;;9.30;73.96
34931;BME280;21134;49.646;8.560;2023-05-19T02:35:55;101067.69;;;9.11;74.77
34931;BME280;21134;49.646;8.560;2023-05-19T02:38:22;101068.28;;;8.94;74.70
34931;BME280;21134;49.646;8.560;2023-05-19T02:40:50;101065.66;;;8.90;76.47
34931;BME280;21134;49.646;8.560;2023-05-19T02:43:16;101057.09;;;8.84;76.61
34931;BME280;21134;49.646;8.560;2023-05-19T02:45:42;101050.19;;;8.79;76.32
34931;BME280;21134;49.646;8.560;2023-05-19T02:48:09;101057.53;;;8.60;77.04
34931;BME280;21134;49.646;8.560;2023-05-19T02:50:36;101061.59;;;8.48;78.12
34931;BME280;21134;49.646;8.560;2023-05-19T02:53:04;101053.88;;;8.43;79.41
34931;BME280;21134;49.646;8.560;2023-05-19T02:55:30;101054.69;;;8.42;78.99
34931;BME280;21134;49.646;8.560;2023-05-19T02:57:56;101053.03;;;8.43;79.41
34931;BME280;21134;49.646;8.560;2023-05-19T03:00:23;101048.59;;;8.35;79.39
34931;BME280;21134;49.646;8.560;2023-05-19T03:02:49;101046.72;;;8.24;80.23
34931;BME280;21134;49.646;8.560;2023-05-19T03:05:17;101055.16;;;8.21;80.06
34931;BME280;21134;49.646;8.560;2023-05-19T03:07:44;101055.16;;;8.21;81.04
34931;BME280;21134;49.646;8.560;2023-05-19T03:10:12;101044.78;;;8.10;81.63
34931;BME280;21134;49.646;8.560;2023-05-19T03:12:38;101055.66;;;8.03;81.50
34931;BME280;21134;49.646;8.560;2023-05-19T03:15:06;101053.91;;;7.99;81.67
34931;BME280;21134;49.646;8.560;2023-05-19T03:17:32;101052.88;;;7.91;82.28
34931;BME280;21134;49.646;8.560;2023-05-19T03:20:00;101062.16;;;7.86;82.40
34931;BME280;21134;49.646;8.560;2023-05-19T03:22:26;101059.44;;;7.77;83.42
34931;BME280;21134;49.646;8.560;2023-05-19T03:24:53;101051.53;;;7.64;83.77
34931;BME280;21134;49.646;8.560;2023-05-19T03:27:21;101053.34;;;7.70;83.30
34931;BME280;21134;49.646;8.560;2023-05-19T03:29:47;101055.16;;;7.76;84.15
34931;BME280;21134;49.646;8.560;2023-05-19T03:32:14;101055.34;;;7.85;83.45
34931;BME280;21134;49.646;8.560;2023-05-19T03:34:40;101052.84;;;7.88;84.13
34931;BME280;21134;49.646;8.560;2023-05-19T03:37:07;101057.91;;;7.86;82.60
34931;BME280;21134;49.646;8.560;2023-05-19T03:39:34;101067.09;;;7.78;83.39
34931;BME280;21134;49.646;8.560;2023-05-19T03:42:01;101064.53;;;7.77;83.13
34931;BME280;21134;49.646;8.560;2023-05-19T03:44:29;101066.16;;;7.73;84.71
34931;BME280;21134;49.646;8.560;2023-05-19T03:46:55;101064.31;;;7.66;83.73
34931;BME280;21134;49.646;8.560;2023-05-19T03:49:22;101065.19;;;7.66;83.30
34931;BME280;21134;49.646;8.560;2023-05-19T03:51:48;101068.63;;;7.70;83.86
34931;BME280;21134;49.646;8.560;2023-05-19T03:54:15;101070.53;;;7.80;84.18
34931;BME280;21134;49.646;8.560;2023-05-19T03:56:42;101066.34;;;7.82;83.86
34931;BME280;21134;49.646;8.560;2023-05-19T03:59:08;101069.81;;;7.86;83.14
34931;BME280;21134;49.646;8.560;2023-05-19T04:01:38;101075.75;;;7.88;83.27
34931;BME280;21134;49.646;8.560;2023-05-19T04:04:04;101077.47;;;7.87;83.48
34931;BME280;21134;49.646;8.560;2023-05-19T04:06:31;101081.75;;;7.90;84.00
34931;BME280;21134;49.646;8.560;2023-05-19T04:08:58;101075.81;;;7.89;82.33
34931;BME280;21134;49.646;8.560;2023-05-19T04:11:24;101075.16;;;8.00;82.32
34931;BME280;21134;49.646;8.560;2023-05-19T04:13:51;101078.53;;;7.99;82.82
34931;BME280;21134;49.646;8.560;2023-05-19T04:16:17;101072.69;;;8.04;81.50
34931;BME280;21134;49.646;8.560;2023-05-19T04:18:45;101073.50;;;8.02;81.74
34931;BME280;21134;49.646;8.560;2023-05-19T04:21:11;101078.66;;;8.06;81.60
34931;BME280;21134;49.646;8.560;2023-05-19T04:23:38;101084.03;;;8.20;82.36
34931;BME280;21134;49.646;8.560;2023-05-19T04:26:04;101075.44;;;8.15;81.85
34931;BME280;21134;49.646;8.560;2023-05-19T04:28:31;101085.69;;;8.18;81.71
34931;BME280;21134;49.646;8.560;2023-05-19T04:31:00;101084.06;;;8.22;82.03
34931;BME280;21134;49.646;8.560;2023-05-19T04:33:27;101085.81;;;8.24;82.65
34931;BME280;21134;49.646;8.560;2023-05-19T04:35:55;101084.03;;;8.20;83.22
34931;BME280;21134;49.646;8.560;2023-05-19T04:38:22;101085.03;;;8.28;82.07
34931;BME280;21134;49.646;8.560;2023-05-19T04:40:48;101085.34;;;8.45;81.95
34931;BME280;21134;49.646;8.560;2023-05-19T04:43:16;101086.41;;;8.56;81.42
34931;BME280;21134;49.646;8.560;2023-05-19T04:45:43;101094.25;;;8.70;80.33
34931;BME280;21134;49.646;8.560;2023-05-19T04:48:10;101099.31;;;8.66;80.78
34931;BME280;21134;49.646;8.560;2023-05-19T04:50:38;101095.09;;;8.69;80.80
34931;BME280;21134;49.646;8.560;2023-05-19T04:53:07;101092.66;;;8.77;79.58
34931;BME280;21134;49.646;8.560;2023-05-19T04:55:34;101099.63;;;8.84;79.34
34931;BME280;21134;49.646;8.560;2023-05-19T04:58:01;101097.28;;;8.99;77.62
34931;BME280;21134;49.646;8.560;2023-05-19T05:00:28;101096.31;;;8.93;78.45
34931;BME280;21134;49.646;8.560;2023-05-19T05:02:54;101099.69;;;8.90;78.92
34931;BME280;21134;49.646;8.560;2023-05-19T05:05:22;101094.69;;;8.96;78.16
34931;BME280;21134;49.646;8.560;2023-05-19T05:07:49;101098.13;;;8.98;79.16
34931;BME280;21134;49.646;8.560;2023-05-19T05:10:19;101099.88;;;9.01;78.50
34931;BME280;21134;49.646;8.560;2023-05-19T05:12:46;101101.56;;;9.02;79.17
34931;BME280;21134;49.646;8.560;2023-05-19T05:15:13;101097.34;;;9.04;78.98
34931;BME280;21134;49.646;8.560;2023-05-19T05:17:40;101098.34;;;9.14;78.65
34931;BME280;21134;49.646;8.560;2023-05-19T05:20:09;101099.31;;;9.22;78.67
34931;BME280;21134;49.646;8.560;2023-05-19T05:22:36;101097.78;;;9.33;78.29
34931;BME280;21134;49.646;8.560;2023-05-19T05:25:04;101091.00;;;9.35;78.48
34931;BME280;21134;49.646;8.560;2023-05-19T05:27:32;101094.47;;;9.39;78.45
34931;BME280;21134;49.646;8.560;2023-05-19T05:29:58;101093.66;;;9.44;78.66
34931;BME280;21134;49.646;8.560;2023-05-19T05:32:25;101092.78;;;9.42;78.15
34931;BME280;21134;49.646;8.560;2023-05-19T05:34:52;101098.84;;;9.50;77.54
34931;BME280;21134;49.646;8.560;2023-05-19T05:37:18;101089.69;;;9.66;76.09
34931;BME280;21134;49.646;8.560;2023-05-19T05:39:44;101088.28;;;9.90;74.62
34931;BME280;21134;49.646;8.560;2023-05-19T05:42:11;101090.84;;;9.90;74.95
34931;BME280;21134;49.646;8.560;2023-05-19T05:44:39;101088.34;;;9.96;75.10
34931;BME280;21134;49.646;8.560;2023-05-19T05:47:06;101084.09;;;9.98;74.34
34931;BME280;21134;49.646;8.560;2023-05-19T05:49:33;101090.31;;;10.21;74.05
34931;BME280;21134;49.646;8.560;2023-05-19T05:52:02;101092.19;;;10.35;73.28
34931;BME280;21134;49.646;8.560;2023-05-19T05:54:29;101086.34;;;10.50;72.29
34931;BME280;21134;49.646;8.560;2023-05-19T05:56:56;101089.03;;;10.65;72.32
34931;BME280;21134;49.646;8.560;2023-05-19T05:59:23;101092.56;;;10.81;71.51
34931;BME280;21134;49.646;8.560;2023-05-19T06:01:51;101081.47;;;10.76;71.85
34931;BME280;21134;49.646;8.560;2023-05-19T06:04:17;101081.69;;;11.11;69.73
34931;BME280;21134;49.646;8.560;2023-05-19T06:06:45;101085.94;;;11.07;69.87
34931;BME280;21134;49.646;8.560;2023-05-19T06:09:11;101088.59;;;11.21;69.91
34931;BME280;21134;49.646;8.560;2023-05-19T06:11:38;101082.56;;;11.16;69.67
34931;BME280;21134;49.646;8.560;2023-05-19T06:14:04;101086.97;;;11.34;69.84
34931;BME280;21134;49.646;8.560;2023-05-19T06:16:31;101085.28;;;11.45;68.79
34931;BME280;21134;49.646;8.560;2023-05-19T06:18:59;101088.75;;;11.49;69.12
34931;BME280;21134;49.646;8.560;2023-05-19T06:21:25;101090.47;;;11.54;68.43
34931;BME280;21134;49.646;8.560;2023-05-19T06:23:51;101092.22;;;11.61;69.28
34931;BME280;21134;49.646;8.560;2023-05-19T06:26:18;101082.91;;;11.82;69.50
34931;BME280;21134;49.646;8.560;2023-05-19T06:28:45;101080.41;;;12.02;67.82
34931;BME280;21134;49.646;8.560;2023-05-19T06:31:11;101081.31;;;12.27;66.08
34931;BME280;21134;49.646;8.560;2023-05-19T06:33:38;101085.63;;;12.39;66.14
34931;BME280;21134;49.646;8.560;2023-05-19T06:36:06;101094.19;;;12.56;64.87
34931;BME280;21134;49.646;8.560;2023-05-19T06:38:34;101088.22;;;12.80;63.42
34931;BME280;21134;49.646;8.560;2023-05-19T06:41:00;101089.06;;;12.96;63.38
34931;BME280;21134;49.646;8.560;2023-05-19T06:43:27;101095.00;;;13.19;62.70
34931;BME280;21134;49.646;8.560;2023-05-19T06:45:54;101089.00;;;13.19;63.45
34931;BME280;21134;49.646;8.560;2023-05-19T06:48:20;101091.53;;;13.48;61.77
34931;BME280;21134;49.646;8.560;2023-05-19T06:50:47;101088.03;;;13.67;60.74
34931;BME280;21134;49.646;8.560;2023-05-19T06:53:18;101088.00;;;13.77;61.51
34931;BME280;21134;49.646;8.560;2023-05-19T06:55:44;101092.28;;;13.79;60.77
34931;BME280;21134;49.646;8.560;2023-05-19T06:58:11;101094.69;;;14.08;61.20
34931;BME280;21134;49.646;8.560;2023-05-19T07:00:37;101086.78;;;14.39;58.93
34931;BME280;21134;49.646;8.560;2023-05-19T07:03:04;101086.03;;;14.23;58.98
34931;BME280;21134;49.646;8.560;2023-05-19T07:05:30;101080.81;;;14.29;59.31
34931;BME280;21134;49.646;8.560;2023-05-19T07:07:57;101078.13;;;14.45;59.42
34931;BME280;21134;49.646;8.560;2023-05-19T07:10:24;101072.81;;;14.72;59.24
34931;BME280;21134;49.646;8.560;2023-05-19T07:12:51;101067.31;;;15.06;56.47
34931;BME280;21134;49.646;8.560;2023-05-19T07:15:17;101071.31;;;15.36;55.55
34931;BME280;21134;49.646;8.560;2023-05-19T07:17:44;101060.66;;;15.62;54.07
34931;BME280;21134;49.646;8.560;2023-05-19T07:20:11;101067.28;;;15.85;52.77
34931;BME280;21134;49.646;8.560;2023-05-19T07:22:38;101060.31;;;15.91;52.38
34931;BME280;21134;49.646;8.560;2023-05-19T07:25:05;101054.03;;;16.09;52.04
34931;BME280;21134;49.646;8.560;2023-05-19T07:27:33;101050.63;;;16.07;51.13
34931;BME280;21134;49.646;8.560;2023-05-19T07:30:00;101051.41;;;16.12;50.80
34931;BME280;21134;49.646;8.560;2023-05-19T07:32:26;101042.63;;;16.24;50.91
34931;BME280;21134;49.646;8.560;2023-05-19T07:34:53;101047.53;;;16.41;51.17
34931;BME280;21134;49.646;8.560;2023-05-19T07:37:19;101040.41;;;16.55;49.04
34931;BME280;21134;49.646;8.560;2023-05-19T07:39:46;101045.66;;;16.49;49.42
34931;BME280;21134;49.646;8.560;2023-05-19T07:42:12;101051.72;;;16.48;50.13
34931;BME280;21134;49.646;8.560;2023-05-19T07:44:40;101038.69;;;16.54;48.87
34931;BME280;21134;49.646;8.560;2023-05-19T07:47:06;101029.75;;;16.75;49.10
34931;BME280;21134;49.646;8.560;2023-05-19T07:49:33;101031.94;;;16.96;47.61
34931;BME280;21134;49.646;8.560;2023-05-19T07:51:59;101027.25;;;17.17;47.64
34931;BME280;21134;49.646;8.560;2023-05-19T07:54:26;101027.19;;;17.20;48.05
34931;BME280;21134;49.646;8.560;2023-05-19T07:56:52;101033.53;;;17.04;47.35
34931;BME280;21134;49.646;8.560;2023-05-19T07:59:19;101024.16;;;16.98;47.08
34931;BME280;21134;49.646;8.560;2023-05-19T08:01:47;101020.53;;;17.07;46.50
34931;BME280;21134;49.646;8.560;2023-05-19T08:04:13;101023.91;;;17.12;47.06
34931;BME280;21134;49.646;8.560;2023-05-19T08:06:40;101013.63;;;17.09;46.48
34931;BME280;21134;49.646;8.560;2023-05-19T08:09:08;101020.53;;;17.07;45.62
34931;BME280;21134;49.646;8.560;2023-05-19T08:11:35;101018.56;;;17.19;45.21
34931;BME280;21134;49.646;8.560;2023-05-19T08:14:01;101021.13;;;17.21;45.31
34931;BME280;21134;49.646;8.560;2023-05-19T08:16:28;101027.34;;;17.54;45.97
34931;BME280;21134;49.646;8.560;2023-05-19T08:18:56;101015.81;;;17.67;43.95
34931;BME280;21134;49.646;8.560;2023-05-19T08:21:25;101020.34;;;18.00;43.64
34931;BME280;21134;49.646;8.560;2023-05-19T08:23:51;101019.88;;;18.18;42.46
34931;BME280;21134;49.646;8.560;2023-05-19T08:26:18;101023.53;;;18.11;41.50
34931;BME280;21134;49.646;8.560;2023-05-19T08:28:45;101016.44;;;18.18;42.76
34931;BME280;21134;49.646;8.560;2023-05-19T08:31:12;101020.63;;;18.23;42.40
34931;BME280;21134;49.646;8.560;2023-05-19T08:33:38;101016.78;;;18.40;40.83
34931;BME280;21134;49.646;8.560;2023-05-19T08:36:06;101009.84;;;18.42;40.89
34931;BME280;21134;49.646;8.560;2023-05-19T08:38:33;101009.09;;;18.36;41.22
34931;BME280;21134;49.646;8.560;2023-05-19T08:41:00;101013.84;;;18.53;41.54
34931;BME280;21134;49.646;8.560;2023-05-19T08:43:26;101005.41;;;18.45;43.11
34931;BME280;21134;49.646;8.560;2023-05-19T08:45:53;101004.06;;;18.63;43.08
34931;BME280;21134;49.646;8.560;2023-05-19T08:48:21;101003.53;;;18.50;43.27
34931;BME280;21134;49.646;8.560;2023-05-19T08:50:56;100993.59;;;18.68;42.52
34931;BME280;21134;49.646;8.560;2023-05-19T08:53:30;101007.16;;;18.79;42.71
34931;BME280;21134;49.646;8.560;2023-05-19T08:56:03;100997.13;;;18.98;42.38
34931;BME280;21134;49.646;8.560;2023-05-19T08:58:35;100994.94;;;19.15;42.38
34931;BME280;21134;49.646;8.560;2023-05-19T09:01:03;100993.69;;;19.27;42.54
34931;BME280;21134;49.646;8.560;2023-05-19T09:03:31;100991.56;;;19.41;42.11
34931;BME280;21134;49.646;8.560;2023-05-19T09:06:04;100979.69;;;19.34;41.72
34931;BME280;21134;49.646;8.560;2023-05-19T09:08:32;100979.97;;;18.94;42.60
34931;BME280;21134;49.646;8.560;2023-05-19T09:10:59;100983.69;;;19.15;43.40
34931;BME280;21134;49.646;8.560;2023-05-19T09:13:25;100979.03;;;19.26;42.51
34931;BME280;21134;49.646;8.560;2023-05-19T09:15:52;100981.59;;;19.27;41.05
34931;BME280;21134;49.646;8.560;2023-05-19T09:18:19;100982.22;;;19.36;41.71
34931;BME280;21134;49.646;8.560;2023-05-19T09:20:45;100979.31;;;19.46;41.79
34931;BME280;21134;49.646;8.560;2023-05-19T09:23:12;100977.56;;;19.17;41.96
34931;BME280;21134;49.646;8.560;2023-05-19T09:25:47;100972.84;;;19.00;42.91
34931;BME280;21134;49.646;8.560;2023-05-19T09:28:22;100975.78;;;19.19;43.19
34931;BME280;21134;49.646;8.560;2023-05-19T09:30:57;100974.59;;;19.29;42.74
34931;BME280;21134;49.646;8.560;2023-05-19T09:33:25;100975.72;;;19.50;43.20
34931;BME280;21134;49.646;8.560;2023-05-19T09:35:53;100963.00;;;19.71;42.18
34931;BME280;21134;49.646;8.560;2023-05-19T09:38:20;100968.56;;;19.87;42.18
34931;BME280;21134;49.646;8.560;2023-05-19T09:40:48;100961.88;;;20.06;44.04
34931;BME280;21134;49.646;8.560;2023-05-19T09:43:15;100965.56;;;20.26;41.60
34931;BME280;21134;49.646;8.560;2023-05-19T09:45:42;100967.81;;;20.36;41.81
34931;BME280;21134;49.646;8.560;2023-05-19T09:48:09;100964.38;;;20.61;41.92
34931;BME280;21134;49.646;8.560;2023-05-19T09:50:37;100962.63;;;20.36;42.13
34931;BME280;21134;49.646;8.560;2023-05-19T09:53:03;100955.28;;;20.48;42.52
34931;BME280;21134;49.646;8.560;2023-05-19T09:55:30;100950.22;;;20.70;43.02
34931;BME280;21134;49.646;8.560;2023-05-19T09:58:00;100956.84;;;20.78;42.89
34931;BME280;21134;49.646;8.560;2023-05-19T10:00:30;100950.09;;;20.96;41.76
34931;BME280;21134;49.646;8.560;2023-05-19T10:02:58;100948.41;;;20.72;42.20
34931;BME280;21134;49.646;8.560;2023-05-19T10:05:27;100947.78;;;20.38;42.65
34931;BME280;21134;49.646;8.560;2023-05-19T10:07:55;100953.78;;;20.15;43.59
34931;BME280;21134;49.646;8.560;2023-05-19T10:10:22;100958.16;;;19.59;44.62
34931;BME280;21134;49.646;8.560;2023-05-19T10:12:49;100955.00;;;19.79;44.64
34931;BME280;21134;49.646;8.560;2023-05-19T10:15:18;100953.22;;;20.06;44.12
34931;BME280;21134;49.646;8.560;2023-05-19T10:17:45;100949.53;;;20.38;43.52
34931;BME280;21134;49.646;8.560;2023-05-19T10:20:14;100953.91;;;20.37;42.78
34931;BME280;21134;49.646;8.560;2023-05-19T10:22:42;100947.91;;;20.10;44.39
34931;BME280;21134;49.646;8.560;2023-05-19T10:25:10;100945.47;;;20.31;43.14
34931;BME280;21134;49.646;8.560;2023-05-19T10:27:41;100935.69;;;20.12;43.55
34931;BME280;21134;49.646;8.560;2023-05-19T10:30:13;100939.03;;;20.16;43.69
34931;BME280;21134;49.646;8.560;2023-05-19T10:32:43;100932.84;;;19.93;43.56
34931;BME280;21134;49.646;8.560;2023-05-19T10:38:13;100932.25;;;20.37;43.01
34931;BME280;21134;49.646;8.560;2023-05-19T10:40:50;100924.38;;;20.65;43.08
34931;BME280;21134;49.646;8.560;2023-05-19T10:43:24;100928.28;;;21.00;42.46
34931;BME280;21134;49.646;8.560;2023-05-19T10:45:57;100924.94;;;20.73;41.57
34931;BME280;21134;49.646;8.560;2023-05-19T10:48:32;100928.84;;;20.85;41.99
34931;BME280;21134;49.646;8.560;2023-05-19T10:50:59;100918.78;;;20.76;43.25
34931;BME280;21134;49.646;8.560;2023-05-19T10:53:30;100919.84;;;20.70;41.75
34931;BME280;21134;49.646;8.560;2023-05-19T10:56:00;100924.59;;;20.82;41.71
34931;BME280;21134;49.646;8.560;2023-05-19T10:58:38;100919.53;;;21.03;42.32
34931;BME280;21134;49.646;8.560;2023-05-19T11:01:12;100913.72;;;21.18;41.45
34931;BME280;21134;49.646;8.560;2023-05-19T11:03:46;100916.28;;;21.20;40.99
34931;BME280;21134;49.646;8.560;2023-05-19T11:06:20;100909.28;;;20.98;40.80
34931;BME280;21134;49.646;8.560;2023-05-19T11:08:53;100913.25;;;20.85;41.16
34931;BME280;21134;49.646;8.560;2023-05-19T11:11:20;100913.63;;;20.98;40.43
34931;BME280;21134;49.646;8.560;2023-05-19T11:13:49;100907.41;;;21.02;41.49
34931;BME280;21134;49.646;8.560;2023-05-19T11:16:18;100901.94;;;21.09;41.28
34931;BME280;21134;49.646;8.560;2023-05-19T11:18:48;100897.38;;;21.14;40.97
34931;BME280;21134;49.646;8.560;2023-05-19T11:21:15;100896.63;;;21.56;41.29
34931;BME280;21134;49.646;8.560;2023-05-19T11:23:41;100899.88;;;22.04;40.32
34931;BME280;21134;49.646;8.560;2023-05-19T11:26:08;100900.97;;;22.41;38.17
34931;BME280;21134;49.646;8.560;2023-05-19T11:28:35;100896.13;;;22.71;36.87
34931;BME280;21134;49.646;8.560;2023-05-19T11:31:04;100901.13;;;22.96;36.00
34931;BME280;21134;49.646;8.560;2023-05-19T11:33:33;100896.31;;;23.06;36.47
34931;BME280;21134;49.646;8.560;2023-05-19T11:36:01;100897.91;;;22.89;36.05
34931;BME280;21134;49.646;8.560;2023-05-19T11:38:28;100895.75;;;22.99;35.63
34931;BME280;21134;49.646;8.560;2023-05-19T11:40:55;100897.50;;;23.17;35.45
34931;BME280;21134;49.646;8.560;2023-05-19T11:43:22;100892.16;;;23.20;36.06
34931;BME280;21134;49.646;8.560;2023-05-19T11:45:49;100897.41;;;23.38;35.95
34931;BME280;21134;49.646;8.560;2023-05-19T11:48:16;100896.13;;;23.64;35.01
34931;BME280;21134;49.646;8.560;2023-05-19T11:50:45;100886.53;;;23.47;35.16
34931;BME280;21134;49.646;8.560;2023-05-19T11:53:14;100888.47;;;23.25;35.26
34931;BME280;21134;49.646;8.560;2023-05-19T11:55:41;100890.03;;;23.10;35.80
34931;BME280;21134;49.646;8.560;2023-05-19T11:58:09;100881.72;;;23.20;36.49
34931;BME280;21134;49.646;8.560;2023-05-19T12:00:37;100884.22;;;23.22;36.86
34931;BME280;21134;49.646;8.560;2023-05-19T12:03:05;100876.94;;;23.65;36.41
34931;BME280;21134;49.646;8.560;2023-05-19T12:05:32;100877.59;;;23.70;36.15
34931;BME280;21134;49.646;8.560;2023-05-19T12:08:01;100880.50;;;23.45;37.36
34931;BME280;21134;49.646;8.560;2023-05-19T12:10:30;100882.22;;;23.46;35.88
34931;BME280;21134;49.646;8.560;2023-05-19T12:12:58;100881.97;;;23.33;36.09
34931;BME280;21134;49.646;8.560;2023-05-19T12:15:25;100891.44;;;23.17;36.25
34931;BME280;21134;49.646;8.560;2023-05-19T12:17:56;100889.38;;;22.86;36.51
34931;BME280;21134;49.646;8.560;2023-05-19T12:20:23;100883.41;;;22.44;36.85
34931;BME280;21134;49.646;8.560;2023-05-19T12:22:50;100887.50;;;21.89;38.02
34931;BME280;21134;49.646;8.560;2023-05-19T12:25:17;100875.09;;;21.95;38.35
34931;BME280;21134;49.646;8.560;2023-05-19T12:27:45;100887.44;;;22.11;37.64
34931;BME280;21134;49.646;8.560;2023-05-19T12:30:14;100873.91;;;22.02;38.63
34931;BME280;21134;49.646;8.560;2023-05-19T12:32:41;100871.88;;;22.09;37.49
34931;BME280;21134;49.646;8.560;2023-05-19T12:35:09;100873.25;;;22.38;37.16
34931;BME280;21134;49.646;8.560;2023-05-19T12:37:39;100875.97;;;22.74;37.92
34931;BME280;21134;49.646;8.560;2023-05-19T12:40:08;100869.88;;;23.13;37.06
34931;BME280;21134;49.646;8.560;2023-05-19T12:42:34;100869.19;;;23.27;36.65
34931;BME280;21134;49.646;8.560;2023-05-19T12:45:04;100862.13;;;23.29;37.21
34931;BME280;21134;49.646;8.560;2023-05-19T12:47:32;100854.47;;;23.43;37.17
34931;BME280;21134;49.646;8.560;2023-05-19T12:50:03;100854.47;;;23.43;36.77
34931;BME280;21134;49.646;8.560;2023-05-19T12:52:31;100857.72;;;23.12;37.51
34931;BME280;21134;49.646;8.560;2023-05-19T12:55:00;100858.44;;;22.97;38.05
34931;BME280;21134;49.646;8.560;2023-05-19T12:57:29;100862.06;;;22.55;39.24
34931;BME280;21134;49.646;8.560;2023-05-19T13:00:00;100854.69;;;22.25;38.99